sensor_id;sensor_type;location;lat;lon;timestamp;pressure;altitude;pressure_sealevel;temperature;humidity
61880;BME280;47817;52.798;27.544;2022-11-12T00:03:57;1033.8;;;10.8;94
61880;BME280;47817;52.798;27.544;2022-11-12T00:09:41;1033.8;;;10.8;93.8
61880;BME280;47817;52.798;27.544;2022-11-12T00:14:13;1033.7;;;10.7;93.9
61880;BME280;47817;52.798;27.544;2022-11-12T00:19:27;1033.7;;;10.7;94.1
61880;BME280;47817;52.798;27.544;2022-11-12T00:24:09;1033.8;;;10.6;94.1
61880;BME280;47817;52.798;27.544;2022-11-12T00:28:57;1033.9;;;10.7;94.1
61880;BME280;47817;52.798;27.544;2022-11-12T00:34:43;1033.8;;;10.6;94.3
61880;BME280;47817;52.798;27.544;2022-11-12T00:39:41;1033.7;;;10.7;94.2
61880;BME280;47817;52.798;27.544;2022-11-12T00:44:43;1033.7;;;10.7;93.9
61880;BME280;47817;52.798;27.544;2022-11-12T00:49:15;1033.8;;;10.7;94.1
61880;BME280;47817;52.798;27.544;2022-11-12T00:54:13;1033.6;;;10.7;94
61880;BME280;47817;52.798;27.544;2022-11-12T00:58:57;1033.6;;;10.8;93.9
61880;BME280;47817;52.798;27.544;2022-11-12T01:04:43;1033.5;;;10.8;93.8
61880;BME280;47817;52.798;27.544;2022-11-12T01:09:07;1033.5;;;10.8;93.9
61880;BME280;47817;52.798;27.544;2022-11-12T01:14:29;1033.6;;;10.8;93.8
61880;BME280;47817;52.798;27.544;2022-11-12T01:19:03;1033.6;;;10.8;93.8
61880;BME280;47817;52.798;27.544;2022-11-12T01:24:43;1033.6;;;10.8;93.8
61880;BME280;47817;52.798;27.544;2022-11-12T01:29:19;1033.5;;;10.8;93.8
61880;BME280;47817;52.798;27.544;2022-11-12T01:34:31;1033.5;;;10.7;93.9
61880;BME280;47817;52.798;27.544;2022-11-12T01:39:33;1033.6;;;10.7;94
61880;BME280;47817;52.798;27.544;2022-11-12T01:44:23;1033.7;;;10.7;94
61880;BME280;47817;52.798;27.544;2022-11-12T01:49:46;1033.6;;;10.7;94.2
61880;BME280;47817;52.798;27.544;2022-11-12T01:54:45;1033.6;;;10.7;94.2
61880;BME280;47817;52.798;27.544;2022-11-12T01:59:45;1033.7;;;10.7;94.2
61880;BME280;47817;52.798;27.544;2022-11-12T02:03:57;1033.7;;;10.7;94.2
61880;BME280;47817;52.798;27.544;2022-11-12T02:09:09;1033.6;;;10.7;94.2
61880;BME280;47817;52.798;27.544;2022-11-12T02:14:07;1033.6;;;10.7;94.2
61880;BME280;47817;52.798;27.544;2022-11-12T02:19:45;1033.6;;;10.7;94.1
61880;BME280;47817;52.798;27.544;2022-11-12T02:24:33;1033.6;;;10.8;94
61880;BME280;47817;52.798;27.544;2022-11-12T02:29:33;1033.8;;;10.7;94.2
61880;BME280;47817;52.798;27.544;2022-11-12T02:33:57;1033.8;;;10.8;94.2
61880;BME280;47817;52.798;27.544;2022-11-12T02:39:45;1033.8;;;10.8;94.1
61880;BME280;47817;52.798;27.544;2022-11-12T02:44:19;1033.7;;;10.8;94.3
61880;BME280;47817;52.798;27.544;2022-11-12T02:49:19;1033.6;;;10.8;94
61880;BME280;47817;52.798;27.544;2022-11-12T02:54:29;1033.6;;;10.7;94.3
61880;BME280;47817;52.798;27.544;2022-11-12T02:59:17;1033.5;;;10.7;94.4
61880;BME280;47817;52.798;27.544;2022-11-12T03:04:45;1033.5;;;10.7;94.6
61880;BME280;47817;52.798;27.544;2022-11-12T03:09:43;1033.5;;;10.7;94.7
61880;BME280;47817;52.798;27.544;2022-11-12T03:14:45;1033.6;;;10.7;94.9
61880;BME280;47817;52.798;27.544;2022-11-12T03:19:17;1033.7;;;10.8;94.9
61880;BME280;47817;52.798;27.544;2022-11-12T03:24:07;1033.6;;;10.8;95
61880;BME280;47817;52.798;27.544;2022-11-12T03:29:19;1033.6;;;10.8;95
61880;BME280;47817;52.798;27.544;2022-11-12T03:34:45;1033.4;;;10.8;95
61880;BME280;47817;52.798;27.544;2022-11-12T03:39:17;1033.3;;;10.7;95.2
61880;BME280;47817;52.798;27.544;2022-11-12T03:44:31;1033.4;;;10.7;95.3
61880;BME280;47817;52.798;27.544;2022-11-12T03:49:09;1033.4;;;10.7;95.5
61880;BME280;47817;52.798;27.544;2022-11-12T03:54:45;1033.4;;;10.7;95.6
61880;BME280;47817;52.798;27.544;2022-11-12T03:59:19;1033.4;;;10.8;95.6
61880;BME280;47817;52.798;27.544;2022-11-12T04:04:31;1033.5;;;10.8;95.6
61880;BME280;47817;52.798;27.544;2022-11-12T04:09:29;1033.5;;;10.8;95.6
61880;BME280;47817;52.798;27.544;2022-11-12T04:14:15;1033.6;;;10.8;95.7
61880;BME280;47817;52.798;27.544;2022-11-12T04:19:45;1033.5;;;10.8;95.8
61880;BME280;47817;52.798;27.544;2022-11-12T04:24:45;1033.5;;;10.8;96
61880;BME280;47817;52.798;27.544;2022-11-12T04:29:45;1033.5;;;10.8;95.9
61880;BME280;47817;52.798;27.544;2022-11-12T04:34:43;1033.5;;;10.8;96.2
61880;BME280;47817;52.798;27.544;2022-11-12T04:38:57;1033.4;;;10.8;96.3
61880;BME280;47817;52.798;27.544;2022-11-12T04:43:57;1033.4;;;10.8;96.1
61880;BME280;47817;52.798;27.544;2022-11-12T04:49:19;1033.4;;;10.8;96.2
61880;BME280;47817;52.798;27.544;2022-11-12T04:54:45;1033.4;;;10.8;96.2
61880;BME280;47817;52.798;27.544;2022-11-12T04:59:43;1033.4;;;10.8;96.3
61880;BME280;47817;52.798;27.544;2022-11-12T05:03:57;1033.3;;;10.9;96.3
61880;BME280;47817;52.798;27.544;2022-11-12T05:09:07;1033.3;;;10.9;96.4
61880;BME280;47817;52.798;27.544;2022-11-12T05:14:21;1033.3;;;10.9;96.3
61880;BME280;47817;52.798;27.544;2022-11-12T05:19:33;1033.2;;;10.9;96.3
61880;BME280;47817;52.798;27.544;2022-11-12T05:24:21;1033.3;;;10.9;96.5
61880;BME280;47817;52.798;27.544;2022-11-12T05:29:07;1033.3;;;10.9;96.5
61880;BME280;47817;52.798;27.544;2022-11-12T05:33:57;1033.3;;;10.9;96.5
61880;BME280;47817;52.798;27.544;2022-11-12T05:39:41;1033.3;;;10.9;96.7
61880;BME280;47817;52.798;27.544;2022-11-12T05:44:19;1033.3;;;10.9;96.6
61880;BME280;47817;52.798;27.544;2022-11-12T05:49:43;1033.3;;;10.9;96.6
61880;BME280;47817;52.798;27.544;2022-11-12T05:54:09;1033.2;;;10.9;96.5
61880;BME280;47817;52.798;27.544;2022-11-12T05:58:57;1033.3;;;11;96.3
61880;BME280;47817;52.798;27.544;2022-11-12T06:04:19;1033.3;;;11;96.4
61880;BME280;47817;52.798;27.544;2022-11-12T06:09:45;1033.4;;;11;96.2
61880;BME280;47817;52.798;27.544;2022-11-12T06:14:45;1033.4;;;11;96.3
61880;BME280;47817;52.798;27.544;2022-11-12T06:19:17;1033.5;;;11;96.5
61880;BME280;47817;52.798;27.544;2022-11-12T06:24:07;1033.5;;;11.1;96.3
61880;BME280;47817;52.798;27.544;2022-11-12T06:29:31;1033.5;;;11.1;96.3
61880;BME280;47817;52.798;27.544;2022-11-12T06:34:43;1033.4;;;11.1;96.4
61880;BME280;47817;52.798;27.544;2022-11-12T06:39:05;1033.4;;;11.1;96.5
61880;BME280;47817;52.798;27.544;2022-11-12T06:43:57;1033.4;;;11.1;96.6
61880;BME280;47817;52.798;27.544;2022-11-12T06:49:17;1033.5;;;11.1;96.9
61880;BME280;47817;52.798;27.544;2022-11-12T06:54:45;1033.5;;;11.1;97
61880;BME280;47817;52.798;27.544;2022-11-12T06:59:17;1033.6;;;11.1;97.1
61880;BME280;47817;52.798;27.544;2022-11-12T07:04:45;1033.7;;;11.1;97.3
61880;BME280;47817;52.798;27.544;2022-11-12T07:09:19;1033.5;;;11.2;97.2
61880;BME280;47817;52.798;27.544;2022-11-12T07:13:57;1033.5;;;11.2;97.3
61880;BME280;47817;52.798;27.544;2022-11-12T07:19:19;1033.5;;;11.3;96.9
61880;BME280;47817;52.798;27.544;2022-11-12T07:24:45;1033.5;;;11.4;96.7
61880;BME280;47817;52.798;27.544;2022-11-12T07:29:43;1033.6;;;11.4;96.3
61880;BME280;47817;52.798;27.544;2022-11-12T07:34:07;1033.5;;;11.5;96
61880;BME280;47817;52.798;27.544;2022-11-12T07:39:17;1033.5;;;11.6;95.4
61880;BME280;47817;52.798;27.544;2022-11-12T07:44:17;1033.5;;;11.7;95
61880;BME280;47817;52.798;27.544;2022-11-12T07:49:31;1033.5;;;11.8;94.6
61880;BME280;47817;52.798;27.544;2022-11-12T07:53:57;1033.4;;;11.9;94.3
61880;BME280;47817;52.798;27.544;2022-11-12T07:59:07;1033.4;;;12;93.5
61880;BME280;47817;52.798;27.544;2022-11-12T08:03:57;1033.4;;;12;93.1
61880;BME280;47817;52.798;27.544;2022-11-12T08:09:33;1033.3;;;11.9;93.1
61880;BME280;47817;52.798;27.544;2022-11-12T08:14:17;1033.2;;;12;92.6
61880;BME280;47817;52.798;27.544;2022-11-12T08:19:43;1033.2;;;12;92.4
61880;BME280;47817;52.798;27.544;2022-11-12T08:24:09;1033.5;;;12;92.2
61880;BME280;47817;52.798;27.544;2022-11-12T08:28:57;1033.5;;;11.9;92.4
61880;BME280;47817;52.798;27.544;2022-11-12T08:34:07;1033.6;;;12;92.1
61880;BME280;47817;52.798;27.544;2022-11-12T08:39:43;1033.6;;;12;91.9
61880;BME280;47817;52.798;27.544;2022-11-12T08:44:45;1033.6;;;12;91.8
61880;BME280;47817;52.798;27.544;2022-11-12T08:49:31;1033.6;;;12;91.8
61880;BME280;47817;52.798;27.544;2022-11-12T08:54:07;1033.6;;;12;91.5
61880;BME280;47817;52.798;27.544;2022-11-12T08:59:33;1033.6;;;12;91.4
61880;BME280;47817;52.798;27.544;2022-11-12T09:04:35;1033.5;;;12;91.4
61880;BME280;47817;52.798;27.544;2022-11-12T09:08:57;1033.5;;;12;91.5
61880;BME280;47817;52.798;27.544;2022-11-12T09:14:45;1033.6;;;12;91.3
61880;BME280;47817;52.798;27.544;2022-11-12T09:18:57;1033.5;;;12;91.2
61880;BME280;47817;52.798;27.544;2022-11-12T09:24:45;1033.5;;;12.1;91.1
61880;BME280;47817;52.798;27.544;2022-11-12T09:28:57;1033.6;;;12.1;91
61880;BME280;47817;52.798;27.544;2022-11-12T09:34:45;1033.7;;;12.1;90.8
61880;BME280;47817;52.798;27.544;2022-11-12T09:39:15;1033.7;;;12.1;90.7
61880;BME280;47817;52.798;27.544;2022-11-12T09:44:07;1033.7;;;12.1;90.9
61880;BME280;47817;52.798;27.544;2022-11-12T09:49:17;1033.8;;;12.1;90.9
61880;BME280;47817;52.798;27.544;2022-11-12T09:54:31;1033.8;;;12;91
61880;BME280;47817;52.798;27.544;2022-11-12T09:59:45;1033.7;;;12;90.9
61880;BME280;47817;52.798;27.544;2022-11-12T10:04:51;1033.8;;;12;91
61880;BME280;47817;52.798;27.544;2022-11-12T10:08:58;1033.7;;;12;91.3
61880;BME280;47817;52.798;27.544;2022-11-12T10:14:36;1033.7;;;12;91.2
61880;BME280;47817;52.798;27.544;2022-11-12T10:19:36;1033.8;;;12;91.1
61880;BME280;47817;52.798;27.544;2022-11-12T10:24:07;1033.7;;;12.1;90.6
61880;BME280;47817;52.798;27.544;2022-11-12T10:29:48;1033.8;;;12.1;90.4
61880;BME280;47817;52.798;27.544;2022-11-12T10:34:10;1033.7;;;12.1;90.5
61880;BME280;47817;52.798;27.544;2022-11-12T10:39:32;1033.7;;;12.1;90.2
61880;BME280;47817;52.798;27.544;2022-11-12T10:44:19;1033.7;;;12.1;89.5
61880;BME280;47817;52.798;27.544;2022-11-12T10:49:52;1033.6;;;12.1;89.1
61880;BME280;47817;52.798;27.544;2022-11-12T10:54:18;1033.6;;;12.1;88.9
61880;BME280;47817;52.798;27.544;2022-11-12T10:59:22;1033.6;;;12.1;88.7
61880;BME280;47817;52.798;27.544;2022-11-12T11:04:22;1033.7;;;12.1;88.4
61880;BME280;47817;52.798;27.544;2022-11-12T11:09:31;1033.5;;;12.1;88.4
61880;BME280;47817;52.798;27.544;2022-11-12T11:14:37;1033.5;;;12;88.8
61880;BME280;47817;52.798;27.544;2022-11-12T11:19:47;1033.5;;;12.1;88.8
61880;BME280;47817;52.798;27.544;2022-11-12T11:24:14;1033.6;;;12.1;88.4
61880;BME280;47817;52.798;27.544;2022-11-12T11:29:37;1033.6;;;12.1;87.9
61880;BME280;47817;52.798;27.544;2022-11-12T11:34:37;1033.4;;;12.1;87.7
61880;BME280;47817;52.798;27.544;2022-11-12T11:38:57;1033.4;;;12.2;87.9
61880;BME280;47817;52.798;27.544;2022-11-12T11:44:45;1033.4;;;12.1;87.9
61880;BME280;47817;52.798;27.544;2022-11-12T11:49:14;1033.4;;;12;87.7
61880;BME280;47817;52.798;27.544;2022-11-12T11:54:49;1033.5;;;12;87.5
61880;BME280;47817;52.798;27.544;2022-11-12T11:59:12;1033.4;;;12;87.5
61880;BME280;47817;52.798;27.544;2022-11-12T12:04:46;1033.4;;;12;87.3
61880;BME280;47817;52.798;27.544;2022-11-12T12:09:12;1033.5;;;12;87.5
61880;BME280;47817;52.798;27.544;2022-11-12T12:14:01;1033.5;;;11.9;88
61880;BME280;47817;52.798;27.544;2022-11-12T12:19:24;1033.5;;;11.8;88.3
61880;BME280;47817;52.798;27.544;2022-11-12T12:24:14;1033.6;;;11.8;88.2
61880;BME280;47817;52.798;27.544;2022-11-12T12:29:47;1033.5;;;11.8;88.3
61880;BME280;47817;52.798;27.544;2022-11-12T12:34:45;1033.4;;;11.8;88.3
61880;BME280;47817;52.798;27.544;2022-11-12T12:39:17;1033.4;;;11.9;87.9
61880;BME280;47817;52.798;27.544;2022-11-12T12:44:39;1033.4;;;11.8;87.9
61880;BME280;47817;52.798;27.544;2022-11-12T12:49:22;1033.4;;;11.8;88
61880;BME280;47817;52.798;27.544;2022-11-12T12:59:47;1033.5;;;11.7;87.7
61880;BME280;47817;52.798;27.544;2022-11-12T13:04:49;1033.6;;;11.7;87.5
61880;BME280;47817;52.798;27.544;2022-11-12T13:09:47;1033.5;;;11.7;87.5
61880;BME280;47817;52.798;27.544;2022-11-12T13:14:43;1033.7;;;11.7;87.2
61880;BME280;47817;52.798;27.544;2022-11-12T13:19:09;1033.7;;;11.6;87.2
61880;BME280;47817;52.798;27.544;2022-11-12T13:24:21;1033.7;;;11.6;87.5
61880;BME280;47817;52.798;27.544;2022-11-12T13:29:21;1033.8;;;11.5;87.6
61880;BME280;47817;52.798;27.544;2022-11-12T13:34:33;1033.7;;;11.5;87.7
61880;BME280;47817;52.798;27.544;2022-11-12T13:39:33;1033.8;;;11.5;87.6
61880;BME280;47817;52.798;27.544;2022-11-12T13:43:57;1033.8;;;11.5;87.8
61880;BME280;47817;52.798;27.544;2022-11-12T13:49:45;1033.8;;;11.5;88.4
61880;BME280;47817;52.798;27.544;2022-11-12T13:54:23;1033.8;;;11.5;88.4
61880;BME280;47817;52.798;27.544;2022-11-12T13:59:47;1033.8;;;11.5;88.5
61880;BME280;47817;52.798;27.544;2022-11-12T14:04:31;1033.8;;;11.5;88.3
61880;BME280;47817;52.798;27.544;2022-11-12T14:09:12;1033.9;;;11.4;87.9
61880;BME280;47817;52.798;27.544;2022-11-12T14:14:35;1033.8;;;11.4;87.5
61880;BME280;47817;52.798;27.544;2022-11-12T14:19:25;1033.9;;;11.3;87.8
61880;BME280;47817;52.798;27.544;2022-11-12T14:24:35;1034;;;11.3;88
61880;BME280;47817;52.798;27.544;2022-11-12T14:29:19;1034;;;11.4;88
61880;BME280;47817;52.798;27.544;2022-11-12T14:34:45;1034;;;11.4;88
61880;BME280;47817;52.798;27.544;2022-11-12T14:39:17;1034.1;;;11.4;88
61880;BME280;47817;52.798;27.544;2022-11-12T14:44:09;1034.2;;;11.4;88
61880;BME280;47817;52.798;27.544;2022-11-12T14:49:20;1034.2;;;11.4;88.4
61880;BME280;47817;52.798;27.544;2022-11-12T14:54:33;1034.3;;;11.3;88.8
61880;BME280;47817;52.798;27.544;2022-11-12T14:58:57;1034.4;;;11.3;89.2
61880;BME280;47817;52.798;27.544;2022-11-12T15:04:50;1034.3;;;11.3;89.3
61880;BME280;47817;52.798;27.544;2022-11-12T15:09:30;1034.5;;;11.3;89.5
61880;BME280;47817;52.798;27.544;2022-11-12T15:14:45;1034.5;;;11.4;89.4
61880;BME280;47817;52.798;27.544;2022-11-12T15:19:21;1034.5;;;11.3;89.3
61880;BME280;47817;52.798;27.544;2022-11-12T15:24:23;1034.5;;;11.2;89.7
61880;BME280;47817;52.798;27.544;2022-11-12T15:29:32;1034.5;;;11.2;90
61880;BME280;47817;52.798;27.544;2022-11-12T15:34:22;1034.6;;;11.2;90
61880;BME280;47817;52.798;27.544;2022-11-12T15:39:46;1034.6;;;11.2;90.2
61880;BME280;47817;52.798;27.544;2022-11-12T15:44:19;1034.6;;;11.2;90.6
61880;BME280;47817;52.798;27.544;2022-11-12T15:49:23;1034.5;;;11.2;90.7
61880;BME280;47817;52.798;27.544;2022-11-12T15:54:19;1034.6;;;11.2;90.8
61880;BME280;47817;52.798;27.544;2022-11-12T15:59:08;1034.6;;;11.2;91
61880;BME280;47817;52.798;27.544;2022-11-12T16:03:57;1034.7;;;11.1;91.4
61880;BME280;47817;52.798;27.544;2022-11-12T16:09:31;1034.6;;;11.1;91.8
61880;BME280;47817;52.798;27.544;2022-11-12T16:14:19;1034.7;;;11;92.4
61880;BME280;47817;52.798;27.544;2022-11-12T16:19:47;1034.6;;;11;92.6
61880;BME280;47817;52.798;27.544;2022-11-12T16:24:07;1034.8;;;11;93
61880;BME280;47817;52.798;27.544;2022-11-12T16:29:47;1034.8;;;11;93.2
61880;BME280;47817;52.798;27.544;2022-11-12T16:34:21;1034.8;;;10.9;93.5
61880;BME280;47817;52.798;27.544;2022-11-12T16:39:45;1034.8;;;10.9;93.7
61880;BME280;47817;52.798;27.544;2022-11-12T16:44:31;1034.8;;;10.9;93.9
61880;BME280;47817;52.798;27.544;2022-11-12T16:48:57;1034.9;;;10.9;94.2
61880;BME280;47817;52.798;27.544;2022-11-12T16:54:47;1035;;;10.9;94.3
61880;BME280;47817;52.798;27.544;2022-11-12T16:59:19;1035;;;10.9;94.3
61880;BME280;47817;52.798;27.544;2022-11-12T17:04:33;1034.9;;;10.9;94.5
61880;BME280;47817;52.798;27.544;2022-11-12T17:09:08;1034.9;;;10.9;94.9
61880;BME280;47817;52.798;27.544;2022-11-12T17:13:58;1034.9;;;10.9;95
61880;BME280;47817;52.798;27.544;2022-11-12T17:18:57;1034.9;;;10.9;95.5
61880;BME280;47817;52.798;27.544;2022-11-12T17:24:47;1034.8;;;10.8;95.8
61880;BME280;47817;52.798;27.544;2022-11-12T17:29:07;1034.9;;;10.8;96.4
61880;BME280;47817;52.798;27.544;2022-11-12T17:34:33;1034.8;;;10.8;96.7
61880;BME280;47817;52.798;27.544;2022-11-12T17:39:17;1034.8;;;10.8;97.3
61880;BME280;47817;52.798;27.544;2022-11-12T17:44:47;1034.7;;;10.8;97.7
61880;BME280;47817;52.798;27.544;2022-11-12T17:48:57;1034.8;;;10.8;98.1
61880;BME280;47817;52.798;27.544;2022-11-12T17:54:31;1034.7;;;10.8;98.2
61880;BME280;47817;52.798;27.544;2022-11-12T17:59:31;1034.6;;;10.8;98.4
61880;BME280;47817;52.798;27.544;2022-11-12T18:03:57;1034.7;;;10.8;98.6
61880;BME280;47817;52.798;27.544;2022-11-12T18:09:44;1034.7;;;10.8;98.7
61880;BME280;47817;52.798;27.544;2022-11-12T18:14:45;1034.7;;;10.8;99.2
61880;BME280;47817;52.798;27.544;2022-11-12T18:19:45;1034.6;;;10.8;99.4
61880;BME280;47817;52.798;27.544;2022-11-12T18:24:17;1034.6;;;10.8;99.4
61880;BME280;47817;52.798;27.544;2022-11-12T18:28:57;1034.6;;;10.8;99.7
61880;BME280;47817;52.798;27.544;2022-11-12T18:34:19;1034.6;;;10.8;99.9
61880;BME280;47817;52.798;27.544;2022-11-12T18:39:45;1034.5;;;10.8;99.8
61880;BME280;47817;52.798;27.544;2022-11-12T18:44:19;1034.5;;;10.8;100
61880;BME280;47817;52.798;27.544;2022-11-12T18:49:31;1034.5;;;10.8;100
61880;BME280;47817;52.798;27.544;2022-11-12T18:54:07;1034.5;;;10.8;100
61880;BME280;47817;52.798;27.544;2022-11-12T18:59:47;1034.4;;;10.8;100
61880;BME280;47817;52.798;27.544;2022-11-12T19:04:19;1034.4;;;10.8;100
61880;BME280;47817;52.798;27.544;2022-11-12T19:09:33;1034.5;;;10.8;100
61880;BME280;47817;52.798;27.544;2022-11-12T19:14:31;1034.6;;;10.9;100
61880;BME280;47817;52.798;27.544;2022-11-12T19:19:07;1034.6;;;10.9;100
61880;BME280;47817;52.798;27.544;2022-11-12T19:24:45;1034.6;;;10.9;100
61880;BME280;47817;52.798;27.544;2022-11-12T19:29:47;1034.6;;;10.9;100
61880;BME280;47817;52.798;27.544;2022-11-12T19:34:47;1034.6;;;10.9;100
61880;BME280;47817;52.798;27.544;2022-11-12T19:39:19;1034.7;;;10.9;100
61880;BME280;47817;52.798;27.544;2022-11-12T19:44:17;1034.6;;;11;100
61880;BME280;47817;52.798;27.544;2022-11-12T19:49:19;1034.7;;;11;100
61880;BME280;47817;52.798;27.544;2022-11-12T19:54:47;1034.7;;;11;100
61880;BME280;47817;52.798;27.544;2022-11-12T19:59:17;1034.7;;;11.1;100
61880;BME280;47817;52.798;27.544;2022-11-12T20:04:31;1034.7;;;11.1;100
61880;BME280;47817;52.798;27.544;2022-11-12T20:08:57;1034.7;;;11.1;100
61880;BME280;47817;52.798;27.544;2022-11-12T20:14:47;1034.7;;;11.1;100
61880;BME280;47817;52.798;27.544;2022-11-12T20:19:09;1034.7;;;11.1;100
61880;BME280;47817;52.798;27.544;2022-11-12T20:24:31;1034.7;;;11.1;100
61880;BME280;47817;52.798;27.544;2022-11-12T20:29:33;1034.7;;;11.1;100
61880;BME280;47817;52.798;27.544;2022-11-12T20:33:57;1034.8;;;11.1;100
61880;BME280;47817;52.798;27.544;2022-11-12T20:39:45;1034.8;;;11.1;100
61880;BME280;47817;52.798;27.544;2022-11-12T20:44:47;1034.9;;;11.1;100
61880;BME280;47817;52.798;27.544;2022-11-12T20:49:45;1034.9;;;11.1;100
61880;BME280;47817;52.798;27.544;2022-11-12T20:54:01;1034.9;;;11.1;100
61880;BME280;47817;52.798;27.544;2022-11-12T20:58:57;1034.9;;;11.1;100
61880;BME280;47817;52.798;27.544;2022-11-12T21:04:31;1035;;;11.1;100
61880;BME280;47817;52.798;27.544;2022-11-12T21:09:45;1035;;;11.1;100
61880;BME280;47817;52.798;27.544;2022-11-12T21:13:57;1035;;;11.1;100
61880;BME280;47817;52.798;27.544;2022-11-12T21:19:33;1035;;;11.1;100
61880;BME280;47817;52.798;27.544;2022-11-12T21:24:07;1035;;;11.1;100
61880;BME280;47817;52.798;27.544;2022-11-12T21:29:47;1035;;;11.1;100
61880;BME280;47817;52.798;27.544;2022-11-12T21:34:19;1035;;;11.1;100
61880;BME280;47817;52.798;27.544;2022-11-12T21:39:33;1035.1;;;11.1;100
61880;BME280;47817;52.798;27.544;2022-11-12T21:44:29;1035.1;;;11.1;100
61880;BME280;47817;52.798;27.544;2022-11-12T21:48:57;1035;;;11.2;100
61880;BME280;47817;52.798;27.544;2022-11-12T21:54:07;1034.9;;;11.1;100
61880;BME280;47817;52.798;27.544;2022-11-12T21:59:29;1034.7;;;11.1;100
61880;BME280;47817;52.798;27.544;2022-11-12T22:04:15;1034.7;;;11;100
61880;BME280;47817;52.798;27.544;2022-11-12T22:09:41;1034.7;;;11;100
61880;BME280;47817;52.798;27.544;2022-11-12T22:14:09;1034.8;;;11.1;100
61880;BME280;47817;52.798;27.544;2022-11-12T22:18:58;1034.7;;;11.1;100
61880;BME280;47817;52.798;27.544;2022-11-12T22:23:59;1034.7;;;11.1;100
61880;BME280;47817;52.798;27.544;2022-11-12T22:29:41;1034.7;;;11.1;100
61880;BME280;47817;52.798;27.544;2022-11-12T22:34:37;1034.7;;;11.1;100
61880;BME280;47817;52.798;27.544;2022-11-12T22:39:13;1034.7;;;11.1;100
61880;BME280;47817;52.798;27.544;2022-11-12T22:43:58;1034.7;;;11.2;100
61880;BME280;47817;52.798;27.544;2022-11-12T22:49:29;1034.7;;;11.2;100
61880;BME280;47817;52.798;27.544;2022-11-12T22:54:29;1034.7;;;11.2;100
61880;BME280;47817;52.798;27.544;2022-11-12T22:59:03;1034.7;;;11.2;100
61880;BME280;47817;52.798;27.544;2022-11-12T23:04:15;1034.7;;;11.3;100
61880;BME280;47817;52.798;27.544;2022-11-12T23:08:58;1034.7;;;11.3;100
61880;BME280;47817;52.798;27.544;2022-11-12T23:14:27;1034.7;;;11.3;100
61880;BME280;47817;52.798;27.544;2022-11-12T23:19:13;1034.8;;;11.3;100
61880;BME280;47817;52.798;27.544;2022-11-12T23:24:41;1034.8;;;11.3;100
61880;BME280;47817;52.798;27.544;2022-11-12T23:28:57;1034.8;;;11.3;100
61880;BME280;47817;52.798;27.544;2022-11-12T23:34:13;1034.7;;;11.3;100
61880;BME280;47817;52.798;27.544;2022-11-12T23:39:17;1034.8;;;11.3;100
61880;BME280;47817;52.798;27.544;2022-11-12T23:44:43;1034.8;;;11.3;100
61880;BME280;47817;52.798;27.544;2022-11-12T23:49:43;1034.8;;;11.3;100
61880;BME280;47817;52.798;27.544;2022-11-12T23:54:03;1034.9;;;11.3;100
61880;BME280;47817;52.798;27.544;2022-11-12T23:59:03;1034.9;;;11.3;100
